sensor_id;sensor_type;location;lat;lon;timestamp;temperature;humidity
8408;DHT22;4241;48.452;9.216;2024-03-02T00:00:55;7.20;99.90
8408;DHT22;4241;48.452;9.216;2024-03-02T00:03:22;7.40;99.90
8408;DHT22;4241;48.452;9.216;2024-03-02T00:05:51;7.30;99.90
8408;DHT22;4241;48.452;9.216;2024-03-02T00:08:23;7.20;99.90
8408;DHT22;4241;48.452;9.216;2024-03-02T00:10:52;7.30;99.90
8408;DHT22;4241;48.452;9.216;2024-03-02T00:13:23;7.10;99.90
8408;DHT22;4241;48.452;9.216;2024-03-02T00:15:53;7.20;99.90
8408;DHT22;4241;48.452;9.216;2024-03-02T00:18:23;7.20;99.90
8408;DHT22;4241;48.452;9.216;2024-03-02T00:20:54;7.20;99.90
8408;DHT22;4241;48.452;9.216;2024-03-02T00:23:23;7.20;99.90
8408;DHT22;4241;48.452;9.216;2024-03-02T00:25:52;7.60;99.90
8408;DHT22;4241;48.452;9.216;2024-03-02T00:28:20;7.60;99.90
8408;DHT22;4241;48.452;9.216;2024-03-02T00:30:58;7.60;99.90
8408;DHT22;4241;48.452;9.216;2024-03-02T00:33:31;7.30;99.90
8408;DHT22;4241;48.452;9.216;2024-03-02T00:36:00;7.70;99.90
8408;DHT22;4241;48.452;9.216;2024-03-02T00:38:27;7.40;99.90
8408;DHT22;4241;48.452;9.216;2024-03-02T00:40:54;7.30;99.90
8408;DHT22;4241;48.452;9.216;2024-03-02T00:43:43;7.60;99.90
8408;DHT22;4241;48.452;9.216;2024-03-02T00:46:16;7.30;99.90
8408;DHT22;4241;48.452;9.216;2024-03-02T00:48:48;7.50;99.90
8408;DHT22;4241;48.452;9.216;2024-03-02T00:51:19;7.20;99.90
8408;DHT22;4241;48.452;9.216;2024-03-02T00:53:46;7.10;99.90
8408;DHT22;4241;48.452;9.216;2024-03-02T00:56:13;7.10;99.90
8408;DHT22;4241;48.452;9.216;2024-03-02T00:58:40;6.40;99.90
8408;DHT22;4241;48.452;9.216;2024-03-02T01:01:07;7.30;99.90
8408;DHT22;4241;48.452;9.216;2024-03-02T01:03:35;7.10;99.90
8408;DHT22;4241;48.452;9.216;2024-03-02T01:06:03;7.20;99.90
8408;DHT22;4241;48.452;9.216;2024-03-02T01:08:33;7.10;99.90
8408;DHT22;4241;48.452;9.216;2024-03-02T01:11:00;7.20;99.90
8408;DHT22;4241;48.452;9.216;2024-03-02T01:13:27;7.00;99.90
8408;DHT22;4241;48.452;9.216;2024-03-02T01:15:54;6.90;99.90
8408;DHT22;4241;48.452;9.216;2024-03-02T01:18:21;6.90;99.90
8408;DHT22;4241;48.452;9.216;2024-03-02T01:20:48;6.90;99.90
8408;DHT22;4241;48.452;9.216;2024-03-02T01:23:17;6.90;99.90
8408;DHT22;4241;48.452;9.216;2024-03-02T01:25:46;6.80;99.90
8408;DHT22;4241;48.452;9.216;2024-03-02T01:28:13;7.10;99.90
8408;DHT22;4241;48.452;9.216;2024-03-02T01:30:41;6.90;99.90
8408;DHT22;4241;48.452;9.216;2024-03-02T01:33:08;7.00;99.90
8408;DHT22;4241;48.452;9.216;2024-03-02T01:35:35;6.90;99.90
8408;DHT22;4241;48.452;9.216;2024-03-02T01:38:01;7.10;99.90
8408;DHT22;4241;48.452;9.216;2024-03-02T01:40:29;6.70;99.90
8408;DHT22;4241;48.452;9.216;2024-03-02T01:42:57;6.70;99.90
8408;DHT22;4241;48.452;9.216;2024-03-02T01:45:24;6.90;99.90
8408;DHT22;4241;48.452;9.216;2024-03-02T01:47:52;7.00;99.90
8408;DHT22;4241;48.452;9.216;2024-03-02T01:50:25;7.10;99.90
8408;DHT22;4241;48.452;9.216;2024-03-02T01:52:52;6.70;99.90
8408;DHT22;4241;48.452;9.216;2024-03-02T01:55:20;6.60;99.90
8408;DHT22;4241;48.452;9.216;2024-03-02T01:57:46;6.80;99.90
8408;DHT22;4241;48.452;9.216;2024-03-02T02:00:16;6.80;99.90
8408;DHT22;4241;48.452;9.216;2024-03-02T02:02:43;6.60;99.90
8408;DHT22;4241;48.452;9.216;2024-03-02T02:05:10;7.20;99.90
8408;DHT22;4241;48.452;9.216;2024-03-02T02:07:37;6.60;99.90
8408;DHT22;4241;48.452;9.216;2024-03-02T02:10:05;6.40;99.90
8408;DHT22;4241;48.452;9.216;2024-03-02T02:12:32;6.50;99.90
8408;DHT22;4241;48.452;9.216;2024-03-02T02:14:59;6.40;99.90
8408;DHT22;4241;48.452;9.216;2024-03-02T02:17:27;6.40;99.90
8408;DHT22;4241;48.452;9.216;2024-03-02T02:19:54;6.40;99.90
8408;DHT22;4241;48.452;9.216;2024-03-02T02:22:22;6.50;99.90
8408;DHT22;4241;48.452;9.216;2024-03-02T02:24:49;6.40;99.90
8408;DHT22;4241;48.452;9.216;2024-03-02T02:27:16;6.60;99.90
8408;DHT22;4241;48.452;9.216;2024-03-02T02:29:43;6.70;99.90
8408;DHT22;4241;48.452;9.216;2024-03-02T02:32:10;6.70;99.90
8408;DHT22;4241;48.452;9.216;2024-03-02T02:34:36;6.80;99.90
8408;DHT22;4241;48.452;9.216;2024-03-02T02:37:03;6.30;99.90
8408;DHT22;4241;48.452;9.216;2024-03-02T02:39:31;6.20;99.90
8408;DHT22;4241;48.452;9.216;2024-03-02T02:41:58;6.50;99.90
8408;DHT22;4241;48.452;9.216;2024-03-02T02:44:26;6.30;99.90
8408;DHT22;4241;48.452;9.216;2024-03-02T02:46:53;6.40;99.90
8408;DHT22;4241;48.452;9.216;2024-03-02T02:49:20;6.20;99.90
8408;DHT22;4241;48.452;9.216;2024-03-02T02:51:46;6.20;99.90
8408;DHT22;4241;48.452;9.216;2024-03-02T02:54:13;6.20;99.90
8408;DHT22;4241;48.452;9.216;2024-03-02T02:56:41;6.40;99.90
8408;DHT22;4241;48.452;9.216;2024-03-02T02:59:11;6.30;99.90
8408;DHT22;4241;48.452;9.216;2024-03-02T03:01:40;6.00;99.90
8408;DHT22;4241;48.452;9.216;2024-03-02T03:04:07;6.00;99.90
8408;DHT22;4241;48.452;9.216;2024-03-02T03:06:34;6.10;99.90
8408;DHT22;4241;48.452;9.216;2024-03-02T03:09:01;6.30;99.90
8408;DHT22;4241;48.452;9.216;2024-03-02T03:11:28;5.90;99.90
8408;DHT22;4241;48.452;9.216;2024-03-02T03:13:56;6.00;99.90
8408;DHT22;4241;48.452;9.216;2024-03-02T03:16:23;5.90;99.90
8408;DHT22;4241;48.452;9.216;2024-03-02T03:18:50;5.80;99.90
8408;DHT22;4241;48.452;9.216;2024-03-02T03:21:18;5.90;99.90
8408;DHT22;4241;48.452;9.216;2024-03-02T03:23:45;5.70;99.90
8408;DHT22;4241;48.452;9.216;2024-03-02T03:26:12;6.10;99.90
8408;DHT22;4241;48.452;9.216;2024-03-02T03:28:39;6.10;99.90
8408;DHT22;4241;48.452;9.216;2024-03-02T03:31:07;5.70;99.90
8408;DHT22;4241;48.452;9.216;2024-03-02T03:33:34;5.70;99.90
8408;DHT22;4241;48.452;9.216;2024-03-02T03:36:00;5.60;99.90
8408;DHT22;4241;48.452;9.216;2024-03-02T03:38:28;5.50;99.90
8408;DHT22;4241;48.452;9.216;2024-03-02T03:40:55;5.60;99.90
8408;DHT22;4241;48.452;9.216;2024-03-02T03:43:22;5.60;99.90
8408;DHT22;4241;48.452;9.216;2024-03-02T03:45:49;5.40;99.90
8408;DHT22;4241;48.452;9.216;2024-03-02T03:48:17;5.60;99.90
8408;DHT22;4241;48.452;9.216;2024-03-02T03:50:44;5.70;99.90
8408;DHT22;4241;48.452;9.216;2024-03-02T03:53:11;5.60;99.90
8408;DHT22;4241;48.452;9.216;2024-03-02T03:55:37;5.40;99.90
8408;DHT22;4241;48.452;9.216;2024-03-02T03:58:04;5.20;99.90
8408;DHT22;4241;48.452;9.216;2024-03-02T04:00:31;5.30;99.90
8408;DHT22;4241;48.452;9.216;2024-03-02T04:02:58;5.40;99.90
8408;DHT22;4241;48.452;9.216;2024-03-02T04:05:26;5.50;99.90
8408;DHT22;4241;48.452;9.216;2024-03-02T04:07:53;5.70;99.90
8408;DHT22;4241;48.452;9.216;2024-03-02T04:10:19;5.80;99.90
8408;DHT22;4241;48.452;9.216;2024-03-02T04:12:46;5.40;99.90
8408;DHT22;4241;48.452;9.216;2024-03-02T04:15:13;6.00;99.90
8408;DHT22;4241;48.452;9.216;2024-03-02T04:17:40;5.40;99.90
8408;DHT22;4241;48.452;9.216;2024-03-02T04:20:07;5.20;99.90
8408;DHT22;4241;48.452;9.216;2024-03-02T04:22:35;5.30;99.90
8408;DHT22;4241;48.452;9.216;2024-03-02T04:25:02;5.40;99.90
8408;DHT22;4241;48.452;9.216;2024-03-02T04:27:30;5.20;99.90
8408;DHT22;4241;48.452;9.216;2024-03-02T04:29:57;5.30;99.90
8408;DHT22;4241;48.452;9.216;2024-03-02T04:32:25;5.30;99.90
8408;DHT22;4241;48.452;9.216;2024-03-02T04:34:52;5.20;99.90
8408;DHT22;4241;48.452;9.216;2024-03-02T04:37:19;5.30;99.90
8408;DHT22;4241;48.452;9.216;2024-03-02T04:39:47;5.80;99.90
8408;DHT22;4241;48.452;9.216;2024-03-02T04:42:14;5.20;99.90
8408;DHT22;4241;48.452;9.216;2024-03-02T04:44:40;5.10;99.90
8408;DHT22;4241;48.452;9.216;2024-03-02T04:47:07;5.10;99.90
8408;DHT22;4241;48.452;9.216;2024-03-02T04:49:34;5.50;99.90
8408;DHT22;4241;48.452;9.216;2024-03-02T04:52:01;5.10;99.90
8408;DHT22;4241;48.452;9.216;2024-03-02T04:54:28;5.10;99.90
8408;DHT22;4241;48.452;9.216;2024-03-02T04:56:56;5.50;99.90
8408;DHT22;4241;48.452;9.216;2024-03-02T04:59:23;5.10;99.90
8408;DHT22;4241;48.452;9.216;2024-03-02T05:01:49;5.10;99.90
8408;DHT22;4241;48.452;9.216;2024-03-02T05:04:16;5.80;99.90
8408;DHT22;4241;48.452;9.216;2024-03-02T05:06:43;5.10;99.90
8408;DHT22;4241;48.452;9.216;2024-03-02T05:09:16;5.20;99.90
8408;DHT22;4241;48.452;9.216;2024-03-02T05:11:43;5.00;99.90
8408;DHT22;4241;48.452;9.216;2024-03-02T05:14:36;5.00;99.90
8408;DHT22;4241;48.452;9.216;2024-03-02T05:17:03;5.00;99.90
8408;DHT22;4241;48.452;9.216;2024-03-02T05:19:30;4.90;99.90
8408;DHT22;4241;48.452;9.216;2024-03-02T05:21:57;5.00;99.90
8408;DHT22;4241;48.452;9.216;2024-03-02T05:24:24;5.00;99.90
8408;DHT22;4241;48.452;9.216;2024-03-02T05:26:52;5.00;99.90
8408;DHT22;4241;48.452;9.216;2024-03-02T05:29:19;5.10;99.90
8408;DHT22;4241;48.452;9.216;2024-03-02T05:31:47;4.80;99.90
8408;DHT22;4241;48.452;9.216;2024-03-02T05:34:14;4.90;99.90
8408;DHT22;4241;48.452;9.216;2024-03-02T05:36:41;4.90;99.90
8408;DHT22;4241;48.452;9.216;2024-03-02T05:39:08;4.90;99.90
8408;DHT22;4241;48.452;9.216;2024-03-02T05:41:36;4.90;99.90
8408;DHT22;4241;48.452;9.216;2024-03-02T05:44:03;4.70;99.90
8408;DHT22;4241;48.452;9.216;2024-03-02T05:46:30;4.70;99.90
8408;DHT22;4241;48.452;9.216;2024-03-02T05:48:59;5.20;99.90
8408;DHT22;4241;48.452;9.216;2024-03-02T05:51:25;4.80;99.90
8408;DHT22;4241;48.452;9.216;2024-03-02T05:53:52;4.70;99.90
8408;DHT22;4241;48.452;9.216;2024-03-02T05:56:19;4.70;99.90
8408;DHT22;4241;48.452;9.216;2024-03-02T05:58:46;4.80;99.90
8408;DHT22;4241;48.452;9.216;2024-03-02T06:01:23;4.80;99.90
8408;DHT22;4241;48.452;9.216;2024-03-02T06:03:54;4.70;99.90
8408;DHT22;4241;48.452;9.216;2024-03-02T06:06:22;3.90;99.90
8408;DHT22;4241;48.452;9.216;2024-03-02T06:08:49;4.50;99.90
8408;DHT22;4241;48.452;9.216;2024-03-02T06:11:16;4.50;99.90
8408;DHT22;4241;48.452;9.216;2024-03-02T06:13:43;4.50;99.90
8408;DHT22;4241;48.452;9.216;2024-03-02T06:16:10;4.40;99.90
8408;DHT22;4241;48.452;9.216;2024-03-02T06:18:37;4.90;99.90
8408;DHT22;4241;48.452;9.216;2024-03-02T06:21:04;4.50;99.90
8408;DHT22;4241;48.452;9.216;2024-03-02T06:23:32;4.50;99.90
8408;DHT22;4241;48.452;9.216;2024-03-02T06:26:00;4.60;99.90
8408;DHT22;4241;48.452;9.216;2024-03-02T06:28:27;4.70;99.90
8408;DHT22;4241;48.452;9.216;2024-03-02T06:30:54;4.40;99.90
8408;DHT22;4241;48.452;9.216;2024-03-02T06:33:21;4.30;99.90
8408;DHT22;4241;48.452;9.216;2024-03-02T06:35:48;4.40;99.90
8408;DHT22;4241;48.452;9.216;2024-03-02T06:38:15;4.50;99.90
8408;DHT22;4241;48.452;9.216;2024-03-02T06:40:43;4.60;99.90
8408;DHT22;4241;48.452;9.216;2024-03-02T06:43:10;4.60;99.90
8408;DHT22;4241;48.452;9.216;2024-03-02T06:45:37;4.90;99.90
8408;DHT22;4241;48.452;9.216;2024-03-02T06:48:04;4.70;99.90
8408;DHT22;4241;48.452;9.216;2024-03-02T06:50:31;4.70;99.90
8408;DHT22;4241;48.452;9.216;2024-03-02T06:52:58;4.80;99.90
8408;DHT22;4241;48.452;9.216;2024-03-02T06:55:25;4.90;99.90
8408;DHT22;4241;48.452;9.216;2024-03-02T06:57:53;4.90;99.90
8408;DHT22;4241;48.452;9.216;2024-03-02T07:00:20;5.20;99.90
8408;DHT22;4241;48.452;9.216;2024-03-02T07:02:47;4.90;99.90
8408;DHT22;4241;48.452;9.216;2024-03-02T07:05:14;5.10;99.90
8408;DHT22;4241;48.452;9.216;2024-03-02T07:07:41;5.10;99.90
8408;DHT22;4241;48.452;9.216;2024-03-02T07:10:08;5.10;99.90
8408;DHT22;4241;48.452;9.216;2024-03-02T07:12:36;5.20;99.90
8408;DHT22;4241;48.452;9.216;2024-03-02T07:15:05;5.70;99.90
8408;DHT22;4241;48.452;9.216;2024-03-02T07:17:47;5.50;99.90
8408;DHT22;4241;48.452;9.216;2024-03-02T07:20:14;5.70;99.90
8408;DHT22;4241;48.452;9.216;2024-03-02T07:22:40;5.70;99.90
8408;DHT22;4241;48.452;9.216;2024-03-02T07:25:07;6.00;99.90
8408;DHT22;4241;48.452;9.216;2024-03-02T07:27:34;5.90;99.90
8408;DHT22;4241;48.452;9.216;2024-03-02T07:30:02;6.30;99.90
8408;DHT22;4241;48.452;9.216;2024-03-02T07:32:30;6.00;99.90
8408;DHT22;4241;48.452;9.216;2024-03-02T07:34:56;6.30;99.90
8408;DHT22;4241;48.452;9.216;2024-03-02T07:37:24;6.40;99.90
8408;DHT22;4241;48.452;9.216;2024-03-02T07:39:51;6.60;99.90
8408;DHT22;4241;48.452;9.216;2024-03-02T07:42:17;6.80;99.90
8408;DHT22;4241;48.452;9.216;2024-03-02T07:44:44;6.40;99.90
8408;DHT22;4241;48.452;9.216;2024-03-02T07:47:11;6.70;99.90
8408;DHT22;4241;48.452;9.216;2024-03-02T07:49:40;6.50;99.90
8408;DHT22;4241;48.452;9.216;2024-03-02T07:52:07;6.90;99.90
8408;DHT22;4241;48.452;9.216;2024-03-02T07:54:33;6.80;99.90
8408;DHT22;4241;48.452;9.216;2024-03-02T07:57:00;6.70;99.90
8408;DHT22;4241;48.452;9.216;2024-03-02T07:59:27;6.80;99.90
8408;DHT22;4241;48.452;9.216;2024-03-02T08:01:54;6.90;99.90
8408;DHT22;4241;48.452;9.216;2024-03-02T08:04:21;6.60;99.90
8408;DHT22;4241;48.452;9.216;2024-03-02T08:06:50;6.70;99.90
8408;DHT22;4241;48.452;9.216;2024-03-02T08:09:17;6.70;99.90
8408;DHT22;4241;48.452;9.216;2024-03-02T08:11:43;6.80;99.90
8408;DHT22;4241;48.452;9.216;2024-03-02T08:14:10;7.10;99.90
8408;DHT22;4241;48.452;9.216;2024-03-02T08:16:37;6.70;99.90
8408;DHT22;4241;48.452;9.216;2024-03-02T08:19:04;6.80;99.90
8408;DHT22;4241;48.452;9.216;2024-03-02T08:21:31;6.90;99.90
8408;DHT22;4241;48.452;9.216;2024-03-02T08:24:02;7.00;99.90
8408;DHT22;4241;48.452;9.216;2024-03-02T08:26:28;7.40;99.90
8408;DHT22;4241;48.452;9.216;2024-03-02T08:28:57;7.30;99.90
8408;DHT22;4241;48.452;9.216;2024-03-02T08:31:24;7.70;99.90
8408;DHT22;4241;48.452;9.216;2024-03-02T08:33:51;7.60;99.90
8408;DHT22;4241;48.452;9.216;2024-03-02T08:36:17;7.60;99.90
8408;DHT22;4241;48.452;9.216;2024-03-02T08:38:45;7.90;99.90
8408;DHT22;4241;48.452;9.216;2024-03-02T08:41:13;7.90;99.90
8408;DHT22;4241;48.452;9.216;2024-03-02T08:43:42;8.10;99.90
8408;DHT22;4241;48.452;9.216;2024-03-02T08:46:09;8.30;99.90
8408;DHT22;4241;48.452;9.216;2024-03-02T08:48:35;8.20;99.90
8408;DHT22;4241;48.452;9.216;2024-03-02T08:51:03;8.40;99.90
8408;DHT22;4241;48.452;9.216;2024-03-02T08:53:33;8.10;99.90
8408;DHT22;4241;48.452;9.216;2024-03-02T08:56:00;8.20;99.90
8408;DHT22;4241;48.452;9.216;2024-03-02T08:58:28;8.60;99.90
8408;DHT22;4241;48.452;9.216;2024-03-02T09:00:54;8.50;99.90
8408;DHT22;4241;48.452;9.216;2024-03-02T09:03:21;8.50;99.90
8408;DHT22;4241;48.452;9.216;2024-03-02T09:05:48;8.50;99.90
8408;DHT22;4241;48.452;9.216;2024-03-02T09:08:15;9.00;99.90
8408;DHT22;4241;48.452;9.216;2024-03-02T09:10:42;9.10;99.90
8408;DHT22;4241;48.452;9.216;2024-03-02T09:13:09;8.90;99.90
8408;DHT22;4241;48.452;9.216;2024-03-02T09:15:37;9.00;99.90
8408;DHT22;4241;48.452;9.216;2024-03-02T09:18:05;9.40;99.90
8408;DHT22;4241;48.452;9.216;2024-03-02T09:20:32;9.20;99.90
8408;DHT22;4241;48.452;9.216;2024-03-02T09:22:59;9.30;99.90
8408;DHT22;4241;48.452;9.216;2024-03-02T09:25:25;9.40;99.90
8408;DHT22;4241;48.452;9.216;2024-03-02T09:27:52;9.90;99.90
8408;DHT22;4241;48.452;9.216;2024-03-02T09:30:19;9.90;99.90
8408;DHT22;4241;48.452;9.216;2024-03-02T09:32:47;10.10;99.90
8408;DHT22;4241;48.452;9.216;2024-03-02T09:35:14;10.30;99.90
8408;DHT22;4241;48.452;9.216;2024-03-02T09:37:41;10.10;99.90
8408;DHT22;4241;48.452;9.216;2024-03-02T09:40:09;10.30;99.90
8408;DHT22;4241;48.452;9.216;2024-03-02T09:42:36;10.40;99.90
8408;DHT22;4241;48.452;9.216;2024-03-02T09:45:04;10.80;99.90
8408;DHT22;4241;48.452;9.216;2024-03-02T09:47:31;10.80;99.90
8408;DHT22;4241;48.452;9.216;2024-03-02T09:49:59;10.90;99.90
8408;DHT22;4241;48.452;9.216;2024-03-02T09:52:26;11.10;99.90
8408;DHT22;4241;48.452;9.216;2024-03-02T09:54:53;11.60;99.90
8408;DHT22;4241;48.452;9.216;2024-03-02T09:57:20;11.50;99.90
8408;DHT22;4241;48.452;9.216;2024-03-02T09:59:47;11.70;99.90
8408;DHT22;4241;48.452;9.216;2024-03-02T10:02:13;12.30;99.90
8408;DHT22;4241;48.452;9.216;2024-03-02T10:04:40;12.30;99.90
8408;DHT22;4241;48.452;9.216;2024-03-02T10:09:43;12.80;99.90
8408;DHT22;4241;48.452;9.216;2024-03-02T10:12:13;12.90;99.90
8408;DHT22;4241;48.452;9.216;2024-03-02T10:14:40;13.10;99.90
8408;DHT22;4241;48.452;9.216;2024-03-02T10:17:09;13.20;99.90
8408;DHT22;4241;48.452;9.216;2024-03-02T10:19:36;13.30;99.90
8408;DHT22;4241;48.452;9.216;2024-03-02T10:22:05;13.40;99.90
8408;DHT22;4241;48.452;9.216;2024-03-02T10:24:38;13.50;99.90
8408;DHT22;4241;48.452;9.216;2024-03-02T10:27:10;13.70;99.90
8408;DHT22;4241;48.452;9.216;2024-03-02T10:29:37;13.80;99.90
8408;DHT22;4241;48.452;9.216;2024-03-02T10:32:05;13.80;99.90
8408;DHT22;4241;48.452;9.216;2024-03-02T10:34:33;14.00;99.90
8408;DHT22;4241;48.452;9.216;2024-03-02T10:37:00;14.20;99.90
8408;DHT22;4241;48.452;9.216;2024-03-02T10:39:27;14.10;99.90
8408;DHT22;4241;48.452;9.216;2024-03-02T10:41:56;14.20;99.90
8408;DHT22;4241;48.452;9.216;2024-03-02T10:44:23;14.40;99.90
8408;DHT22;4241;48.452;9.216;2024-03-02T10:46:50;14.40;99.90
8408;DHT22;4241;48.452;9.216;2024-03-02T10:49:19;14.50;99.90
8408;DHT22;4241;48.452;9.216;2024-03-02T10:51:47;14.60;99.90
8408;DHT22;4241;48.452;9.216;2024-03-02T10:54:15;14.80;99.90
8408;DHT22;4241;48.452;9.216;2024-03-02T10:56:44;14.70;99.90
8408;DHT22;4241;48.452;9.216;2024-03-02T10:59:17;14.90;99.90
8408;DHT22;4241;48.452;9.216;2024-03-02T11:01:48;14.90;99.90
8408;DHT22;4241;48.452;9.216;2024-03-02T11:04:18;15.00;99.90
8408;DHT22;4241;48.452;9.216;2024-03-02T11:06:49;15.20;99.90
8408;DHT22;4241;48.452;9.216;2024-03-02T11:09:19;15.40;99.90
8408;DHT22;4241;48.452;9.216;2024-03-02T11:11:52;15.30;99.90
8408;DHT22;4241;48.452;9.216;2024-03-02T11:14:24;15.30;99.90
8408;DHT22;4241;48.452;9.216;2024-03-02T11:16:52;15.60;99.90
8408;DHT22;4241;48.452;9.216;2024-03-02T11:19:19;15.80;99.90
8408;DHT22;4241;48.452;9.216;2024-03-02T11:21:47;16.00;99.90
8408;DHT22;4241;48.452;9.216;2024-03-02T11:24:31;16.20;96.70
8408;DHT22;4241;48.452;9.216;2024-03-02T11:27:01;16.30;97.70
8408;DHT22;4241;48.452;9.216;2024-03-02T11:29:53;16.40;97.90
8408;DHT22;4241;48.452;9.216;2024-03-02T11:32:21;16.60;98.00
8408;DHT22;4241;48.452;9.216;2024-03-02T11:34:50;16.70;95.50
8408;DHT22;4241;48.452;9.216;2024-03-02T11:37:17;16.70;95.60
8408;DHT22;4241;48.452;9.216;2024-03-02T11:39:46;17.70;95.50
8408;DHT22;4241;48.452;9.216;2024-03-02T11:42:14;16.90;95.10
8408;DHT22;4241;48.452;9.216;2024-03-02T11:44:43;17.00;94.00
8408;DHT22;4241;48.452;9.216;2024-03-02T11:47:14;17.20;95.40
8408;DHT22;4241;48.452;9.216;2024-03-02T11:49:42;17.10;91.60
8408;DHT22;4241;48.452;9.216;2024-03-02T11:52:11;17.20;94.10
8408;DHT22;4241;48.452;9.216;2024-03-02T11:54:39;17.20;93.70
8408;DHT22;4241;48.452;9.216;2024-03-02T11:57:12;17.20;91.90
8408;DHT22;4241;48.452;9.216;2024-03-02T11:59:39;17.30;92.40
8408;DHT22;4241;48.452;9.216;2024-03-02T12:02:06;17.40;91.90
8408;DHT22;4241;48.452;9.216;2024-03-02T12:04:34;17.50;90.40
8408;DHT22;4241;48.452;9.216;2024-03-02T12:07:03;17.50;92.70
8408;DHT22;4241;48.452;9.216;2024-03-02T12:09:30;17.50;90.10
8408;DHT22;4241;48.452;9.216;2024-03-02T12:12:04;17.60;91.60
8408;DHT22;4241;48.452;9.216;2024-03-02T12:14:32;17.70;91.90
8408;DHT22;4241;48.452;9.216;2024-03-02T12:16:59;17.70;90.20
8408;DHT22;4241;48.452;9.216;2024-03-02T12:19:26;17.60;87.50
8408;DHT22;4241;48.452;9.216;2024-03-02T12:21:57;17.60;87.30
8408;DHT22;4241;48.452;9.216;2024-03-02T12:24:26;17.60;91.00
8408;DHT22;4241;48.452;9.216;2024-03-02T12:26:53;17.60;90.70
8408;DHT22;4241;48.452;9.216;2024-03-02T12:29:21;17.50;90.40
8408;DHT22;4241;48.452;9.216;2024-03-02T12:31:49;17.50;91.30
8408;DHT22;4241;48.452;9.216;2024-03-02T12:34:17;17.40;89.50
8408;DHT22;4241;48.452;9.216;2024-03-02T12:36:45;17.20;89.80
8408;DHT22;4241;48.452;9.216;2024-03-02T12:39:16;17.20;88.20
8408;DHT22;4241;48.452;9.216;2024-03-02T12:41:43;17.10;87.00
8408;DHT22;4241;48.452;9.216;2024-03-02T12:44:10;17.00;90.80
8408;DHT22;4241;48.452;9.216;2024-03-02T12:46:37;17.00;91.70
8408;DHT22;4241;48.452;9.216;2024-03-02T12:49:08;16.80;90.40
8408;DHT22;4241;48.452;9.216;2024-03-02T12:51:37;16.70;88.30
8408;DHT22;4241;48.452;9.216;2024-03-02T12:54:06;16.50;90.60
8408;DHT22;4241;48.452;9.216;2024-03-02T12:56:35;16.40;88.70
8408;DHT22;4241;48.452;9.216;2024-03-02T12:59:03;16.30;87.60
8408;DHT22;4241;48.452;9.216;2024-03-02T13:01:30;16.20;91.10
8408;DHT22;4241;48.452;9.216;2024-03-02T13:03:58;16.10;90.50
8408;DHT22;4241;48.452;9.216;2024-03-02T13:06:26;16.20;91.10
8408;DHT22;4241;48.452;9.216;2024-03-02T13:08:54;16.10;90.50
8408;DHT22;4241;48.452;9.216;2024-03-02T13:11:22;16.00;88.20
8408;DHT22;4241;48.452;9.216;2024-03-02T13:13:51;15.80;89.30
8408;DHT22;4241;48.452;9.216;2024-03-02T13:16:18;15.80;89.90
8408;DHT22;4241;48.452;9.216;2024-03-02T13:18:45;15.70;87.50
8408;DHT22;4241;48.452;9.216;2024-03-02T13:21:13;15.70;89.20
8408;DHT22;4241;48.452;9.216;2024-03-02T13:23:40;15.60;86.80
8408;DHT22;4241;48.452;9.216;2024-03-02T13:26:06;15.50;83.50
8408;DHT22;4241;48.452;9.216;2024-03-02T13:28:36;15.50;84.70
8408;DHT22;4241;48.452;9.216;2024-03-02T13:31:04;15.40;85.60
8408;DHT22;4241;48.452;9.216;2024-03-02T13:33:32;15.30;85.50
8408;DHT22;4241;48.452;9.216;2024-03-02T13:35:59;15.20;85.50
8408;DHT22;4241;48.452;9.216;2024-03-02T13:38:27;15.10;83.20
8408;DHT22;4241;48.452;9.216;2024-03-02T13:40:54;15.10;85.20
8408;DHT22;4241;48.452;9.216;2024-03-02T13:43:21;13.20;84.50
8408;DHT22;4241;48.452;9.216;2024-03-02T13:45:49;15.00;84.70
8408;DHT22;4241;48.452;9.216;2024-03-02T13:48:18;15.00;82.20
8408;DHT22;4241;48.452;9.216;2024-03-02T13:50:46;14.90;83.80
8408;DHT22;4241;48.452;9.216;2024-03-02T13:53:12;15.00;87.30
8408;DHT22;4241;48.452;9.216;2024-03-02T13:55:39;15.00;88.00
8408;DHT22;4241;48.452;9.216;2024-03-02T13:58:07;14.90;88.40
8408;DHT22;4241;48.452;9.216;2024-03-02T14:00:34;14.90;88.20
8408;DHT22;4241;48.452;9.216;2024-03-02T14:03:03;14.90;86.30
8408;DHT22;4241;48.452;9.216;2024-03-02T14:05:32;14.80;88.60
8408;DHT22;4241;48.452;9.216;2024-03-02T14:07:58;14.80;85.90
8408;DHT22;4241;48.452;9.216;2024-03-02T14:10:26;14.80;88.10
8408;DHT22;4241;48.452;9.216;2024-03-02T14:12:53;14.80;88.40
8408;DHT22;4241;48.452;9.216;2024-03-02T14:15:21;14.70;84.70
8408;DHT22;4241;48.452;9.216;2024-03-02T14:17:48;14.70;85.80
8408;DHT22;4241;48.452;9.216;2024-03-02T14:20:15;14.70;85.90
8408;DHT22;4241;48.452;9.216;2024-03-02T14:22:48;14.60;82.20
8408;DHT22;4241;48.452;9.216;2024-03-02T14:25:16;14.60;83.50
8408;DHT22;4241;48.452;9.216;2024-03-02T14:27:43;14.60;81.10
8408;DHT22;4241;48.452;9.216;2024-03-02T14:30:11;14.60;81.70
8408;DHT22;4241;48.452;9.216;2024-03-02T14:32:38;14.60;83.20
8408;DHT22;4241;48.452;9.216;2024-03-02T14:35:06;14.60;82.90
8408;DHT22;4241;48.452;9.216;2024-03-02T14:37:35;14.70;81.50
8408;DHT22;4241;48.452;9.216;2024-03-02T14:40:04;14.60;80.40
8408;DHT22;4241;48.452;9.216;2024-03-02T14:42:32;14.90;80.20
8408;DHT22;4241;48.452;9.216;2024-03-02T14:44:59;14.60;81.10
8408;DHT22;4241;48.452;9.216;2024-03-02T14:47:27;14.60;81.90
8408;DHT22;4241;48.452;9.216;2024-03-02T14:49:53;14.60;84.20
8408;DHT22;4241;48.452;9.216;2024-03-02T14:52:20;14.60;81.70
8408;DHT22;4241;48.452;9.216;2024-03-02T14:54:47;14.60;81.10
8408;DHT22;4241;48.452;9.216;2024-03-02T14:57:15;14.60;77.30
8408;DHT22;4241;48.452;9.216;2024-03-02T14:59:42;14.60;77.40
8408;DHT22;4241;48.452;9.216;2024-03-02T15:02:09;14.50;72.90
8408;DHT22;4241;48.452;9.216;2024-03-02T15:04:36;14.50;70.20
8408;DHT22;4241;48.452;9.216;2024-03-02T15:07:03;14.40;70.70
8408;DHT22;4241;48.452;9.216;2024-03-02T15:09:29;14.50;72.90
8408;DHT22;4241;48.452;9.216;2024-03-02T15:11:56;14.40;72.30
8408;DHT22;4241;48.452;9.216;2024-03-02T15:14:24;14.30;68.50
8408;DHT22;4241;48.452;9.216;2024-03-02T15:16:51;14.20;65.20
8408;DHT22;4241;48.452;9.216;2024-03-02T15:19:18;14.20;67.50
8408;DHT22;4241;48.452;9.216;2024-03-02T15:21:46;14.10;68.20
8408;DHT22;4241;48.452;9.216;2024-03-02T15:24:13;14.10;65.50
8408;DHT22;4241;48.452;9.216;2024-03-02T15:26:40;14.00;67.50
8408;DHT22;4241;48.452;9.216;2024-03-02T15:29:07;14.00;66.90
8408;DHT22;4241;48.452;9.216;2024-03-02T15:31:35;13.90;70.00
8408;DHT22;4241;48.452;9.216;2024-03-02T15:34:02;13.70;68.80
8408;DHT22;4241;48.452;9.216;2024-03-02T15:36:29;13.80;64.10
8408;DHT22;4241;48.452;9.216;2024-03-02T15:38:55;13.70;65.10
8408;DHT22;4241;48.452;9.216;2024-03-02T15:41:22;13.80;66.30
8408;DHT22;4241;48.452;9.216;2024-03-02T15:43:49;13.70;66.10
8408;DHT22;4241;48.452;9.216;2024-03-02T15:46:16;13.60;66.40
8408;DHT22;4241;48.452;9.216;2024-03-02T15:48:44;13.70;66.40
8408;DHT22;4241;48.452;9.216;2024-03-02T15:51:11;13.70;70.80
8408;DHT22;4241;48.452;9.216;2024-03-02T15:53:38;13.60;72.60
8408;DHT22;4241;48.452;9.216;2024-03-02T15:56:05;13.60;73.10
8408;DHT22;4241;48.452;9.216;2024-03-02T15:58:31;13.50;77.30
8408;DHT22;4241;48.452;9.216;2024-03-02T16:01:00;13.50;80.20
8408;DHT22;4241;48.452;9.216;2024-03-02T16:03:26;13.50;82.20
8408;DHT22;4241;48.452;9.216;2024-03-02T16:05:55;13.50;83.60
8408;DHT22;4241;48.452;9.216;2024-03-02T16:08:21;13.40;84.90
8408;DHT22;4241;48.452;9.216;2024-03-02T16:10:48;13.40;85.10
8408;DHT22;4241;48.452;9.216;2024-03-02T16:13:16;13.40;89.60
8408;DHT22;4241;48.452;9.216;2024-03-02T16:15:43;13.40;91.20
8408;DHT22;4241;48.452;9.216;2024-03-02T16:18:10;13.30;94.40